Danville, New Hampshire
Current Conditions -  °F | °C
As of 2:54 PM on Tuesday 21 Oct 2014 (Local Time) from KLWM Reporting Station
Overcast Overcast  
Wind Chill: 61°   Ceiling: 1900
Heat Index: 61°   Visibility: 10mi
Dew Point: 54°   Wind: 7mph
Humidity: 78%   Direction: 40°NE
Pressure: 29.94"   Gusts: NA
Location:  42.91°N, 71.12°W
Report Text: KLWM 211854Z 04006KT 10SM BKN019 BKN030 OVC110 16/12 A2994 RMK AO2 SLP138 T01610122
Loading
Personal Weather Stations






























Interactive Weather Map
Tropical Storm Tracking
New forecast layout! Learn more

10-Day Weather Forecast

Advertisements
Track Severe Weather on mobile